Time;durP1;ratioP1;P1;durP2;ratioP2;P2;SDS_P1;SDS_P2;PMS_P1;PMS_P2;Temp;Humidity;BMP_temperature;BMP_pressure;BME280_temperature;BME280_humidity;BME280_pressure;Samples;Min_cycle;Max_cycle;Signal;HPM_P1;HPM_P2
2022/05/04 00:00:23;;;;;;;;;;;;;;;11.97;100.00;99316.78;5116483;28;19966;-79
2022/05/04 00:02:50;;;;;;;;;;;;;;;12.24;100.00;99317.50;5098538;28;19923;-79
2022/05/04 00:05:17;;;;;;;;;;;;;;;12.30;100.00;99310.97;5114939;28;19930;-79
2022/05/04 00:07:45;;;;;;;;;;;;;;;12.40;100.00;99312.78;5116000;28;19939;-79
2022/05/04 00:10:13;;;;;;;;;;;;;;;12.47;100.00;99309.84;5115806;28;19923;-79
2022/05/04 00:12:41;;;;;;;;;;;;;;;12.40;100.00;99312.78;5113068;27;19924;-80
2022/05/04 00:15:08;;;;;;;;;;;;;;;10.70;100.00;99310.31;5114012;28;20512;-79
2022/05/04 00:17:35;;;;;;;;;;;;;;;10.55;100.00;99320.06;5113737;28;19923;-79
2022/05/04 00:20:03;;;;;;;;;;;;;;;11.05;100.00;99314.63;5115417;28;19928;-79
2022/05/04 00:22:30;;;;;;;;;;;;;;;11.55;100.00;99314.66;5115599;28;19923;-79
2022/05/04 00:24:58;;;;;;;;;;;;;;;11.97;100.00;99314.00;5080618;28;19989;-79
2022/05/04 00:27:25;;;;;;;;;;;;;;;12.21;100.00;99305.13;5115329;28;20010;-79
2022/05/04 00:29:52;;;;;;;;;;;;;;;11.96;100.00;99313.22;5097260;28;19924;-80
2022/05/04 00:32:21;;;;;;;;;;;;;;;12.20;100.00;99308.38;5097087;28;19967;-78
2022/05/04 00:34:48;;;;;;;;;;;;;;;12.30;100.00;99299.75;5115296;28;19924;-78
2022/05/04 00:37:16;;;;;;;;;;;;;;;12.20;100.00;99299.97;5114095;28;19928;-79
2022/05/04 00:39:43;;;;;;;;;;;;;;;12.26;100.00;99292.66;5113700;28;19927;-78
2022/05/04 00:42:11;;;;;;;;;;;;;;;12.31;100.00;99287.31;5113721;28;19977;-78
2022/05/04 00:44:40;;;;;;;;;;;;;;;11.72;100.00;99278.00;5113930;28;19923;-78
2022/05/04 00:47:07;;;;;;;;;;;;;;;11.83;100.00;99287.03;5114954;28;19923;-78
2022/05/04 00:49:34;;;;;;;;;;;;;;;12.21;100.00;99296.75;5096781;28;19930;-78
2022/05/04 00:52:02;;;;;;;;;;;;;;;11.77;100.00;99283.13;5096182;28;19970;-78
2022/05/04 00:54:30;;;;;;;;;;;;;;;11.97;100.00;99297.19;5113645;28;19924;-78
2022/05/04 00:56:58;;;;;;;;;;;;;;;11.99;100.00;99292.75;5114845;28;20014;-78
2022/05/04 00:59:25;;;;;;;;;;;;;;;12.17;100.00;99286.81;5114483;28;19924;-78
2022/05/04 01:01:52;;;;;;;;;;;;;;;12.04;100.00;99285.88;5113578;28;19923;-78
2022/05/04 01:04:20;;;;;;;;;;;;;;;12.47;100.00;99293.03;5114708;28;20026;-78
2022/05/04 01:06:47;;;;;;;;;;;;;;;12.55;100.00;99283.28;5114624;28;19946;-78
2022/05/04 01:09:14;;;;;;;;;;;;;;;12.66;100.00;99283.03;5114249;28;19959;-79
2022/05/04 01:11:42;;;;;;;;;;;;;;;12.32;100.00;99276.91;5114654;28;19951;-79
2022/05/04 01:14:14;;;;;;;;;;;;;;;12.53;100.00;99280.09;5114487;28;19976;-79
2022/05/04 01:16:43;;;;;;;;;;;;;;;12.10;100.00;99275.75;5114574;28;19955;-78
2022/05/04 01:19:10;;;;;;;;;;;;;;;12.24;100.00;99279.06;5113363;28;19924;-79
2022/05/04 01:21:37;;;;;;;;;;;;;;;12.56;100.00;99265.22;5114370;28;20359;-79
2022/05/04 01:24:05;;;;;;;;;;;;;;;12.66;100.00;99267.00;5112532;28;20267;-79
2022/05/04 01:26:32;;;;;;;;;;;;;;;12.86;100.00;99257.78;5096175;28;19966;-79
2022/05/04 01:29:00;;;;;;;;;;;;;;;12.73;100.00;99266.88;5113079;28;19924;-79
2022/05/04 01:31:27;;;;;;;;;;;;;;;12.63;100.00;99256.66;5096256;28;19924;-79
2022/05/04 01:33:55;;;;;;;;;;;;;;;12.71;100.00;99255.28;5113077;28;20027;-78
2022/05/04 01:36:22;;;;;;;;;;;;;;;12.80;100.00;99253.91;5113104;28;19923;-79
2022/05/04 01:38:49;;;;;;;;;;;;;;;12.76;100.00;99245.56;5112710;28;19928;-78
2022/05/04 01:44:04;;;;;;;;;;;;;;;12.56;100.00;99250.41;5114290;28;19924;-78
2022/05/04 01:46:31;;;;;;;;;;;;;;;12.71;100.00;99252.47;5113003;28;19946;-79
2022/05/04 01:48:59;;;;;;;;;;;;;;;12.80;100.00;99249.06;5114269;28;20294;-80
2022/05/04 01:51:26;;;;;;;;;;;;;;;12.83;100.00;99239.03;5114253;28;19923;-79
2022/05/04 01:53:53;;;;;;;;;;;;;;;12.95;100.00;99243.97;5113993;28;20352;-79
2022/05/04 01:56:20;;;;;;;;;;;;;;;12.83;100.00;99237.00;5114228;28;19923;-79
2022/05/04 01:58:47;;;;;;;;;;;;;;;12.80;100.00;99232.25;5114238;28;19924;-79
2022/05/04 02:01:15;;;;;;;;;;;;;;;12.46;100.00;99237.41;5112465;28;20412;-79
2022/05/04 02:03:42;;;;;;;;;;;;;;;12.52;100.00;99239.28;5114055;28;20264;-79
2022/05/04 02:06:10;;;;;;;;;;;;;;;12.40;100.00;99231.50;5095733;28;19924;-79
2022/05/04 02:08:37;;;;;;;;;;;;;;;11.76;100.00;99228.38;5113882;28;19924;-78
2022/05/04 02:11:04;;;;;;;;;;;;;;;12.23;100.00;99235.47;5114189;28;20098;-78
2022/05/04 02:13:31;;;;;;;;;;;;;;;12.21;100.00;99229.50;5117798;28;20382;-79
2022/05/04 02:15:58;;;;;;;;;;;;;;;12.48;100.00;99232.94;5116600;28;20291;-79
2022/05/04 02:18:25;;;;;;;;;;;;;;;12.53;100.00;99229.66;5116740;28;19923;-79
2022/05/04 02:20:52;;;;;;;;;;;;;;;12.45;100.00;99231.00;5117530;28;19935;-78
2022/05/04 02:23:19;;;;;;;;;;;;;;;12.55;100.00;99221.59;5117505;28;20402;-79
2022/05/04 02:25:47;;;;;;;;;;;;;;;12.52;100.00;99225.28;5117617;28;19947;-79
2022/05/04 02:28:14;;;;;;;;;;;;;;;12.64;100.00;99213.41;5116429;28;19923;-79
2022/05/04 02:30:41;;;;;;;;;;;;;;;12.39;100.00;99218.72;5117556;28;19930;-78
2022/05/04 02:33:10;;;;;;;;;;;;;;;12.46;100.00;99223.41;5117433;27;19930;-79
2022/05/04 02:38:24;;;;;;;;;;;;;;;12.48;100.00;99218.94;5117425;28;20057;-78
2022/05/04 02:40:51;;;;;;;;;;;;;;;12.62;100.00;99209.44;5082185;28;19931;-79
2022/05/04 02:43:18;;;;;;;;;;;;;;;12.71;100.00;99206.81;5099382;28;19927;-79
2022/05/04 02:45:45;;;;;;;;;;;;;;;12.82;100.00;99203.78;5117158;28;19924;-79
2022/05/04 02:48:12;;;;;;;;;;;;;;;12.68;100.00;99208.50;5082334;28;20387;-78
2022/05/04 02:50:39;;;;;;;;;;;;;;;12.86;100.00;99208.09;5098798;28;19988;-78
2022/05/04 02:53:06;;;;;;;;;;;;;;;12.75;100.00;99202.72;5115881;28;19924;-79
2022/05/04 02:55:33;;;;;;;;;;;;;;;12.94;100.00;99203.09;5098990;28;19950;-79
2022/05/04 02:58:01;;;;;;;;;;;;;;;12.86;100.00;99201.69;5116993;28;19966;-78
2022/05/04 03:00:28;;;;;;;;;;;;;;;12.82;100.00;99203.78;5117036;28;20537;-78
2022/05/04 03:02:56;;;;;;;;;;;;;;;12.97;100.00;99205.03;5116892;28;20382;-79
2022/05/04 03:05:23;;;;;;;;;;;;;;;12.95;100.00;99207.50;5115327;28;19930;-79
2022/05/04 03:07:50;;;;;;;;;;;;;;;12.98;100.00;99201.03;5116792;28;19924;-79
2022/05/04 03:10:18;;;;;;;;;;;;;;;13.12;100.00;99197.88;5116635;28;19953;-79
2022/05/04 03:12:45;;;;;;;;;;;;;;;12.85;100.00;99200.91;5116671;28;19928;-79
2022/05/04 03:15:12;;;;;;;;;;;;;;;12.85;100.00;99198.09;5116737;28;19931;-78
2022/05/04 03:17:39;;;;;;;;;;;;;;;12.84;100.00;99195.72;5115473;28;19973;-80
2022/05/04 03:20:07;;;;;;;;;;;;;;;13.02;100.00;99204.56;5116258;28;19924;-79
2022/05/04 03:22:34;;;;;;;;;;;;;;;12.87;100.00;99197.66;5115085;28;20023;-79
2022/05/04 03:25:04;;;;;;;;;;;;;;;13.08;100.00;99197.19;5116714;28;19924;-79
2022/05/04 03:27:32;;;;;;;;;;;;;;;13.25;100.00;99193.19;5116638;28;19946;-79
2022/05/04 03:30:01;;;;;;;;;;;;;;;13.11;100.00;99197.13;5115087;28;19924;-78
2022/05/04 03:32:28;;;;;;;;;;;;;;;13.23;100.00;99198.44;5116254;28;19924;-78
2022/05/04 03:34:56;;;;;;;;;;;;;;;13.16;100.00;99185.34;5114761;28;19955;-78
2022/05/04 03:37:23;;;;;;;;;;;;;;;13.04;100.00;99190.88;5116129;28;19923;-78
2022/05/04 03:39:51;;;;;;;;;;;;;;;13.07;100.00;99184.41;5116175;28;20271;-78
2022/05/04 03:42:19;;;;;;;;;;;;;;;13.07;100.00;99185.16;5116157;28;19949;-78
2022/05/04 03:44:46;;;;;;;;;;;;;;;12.69;100.00;99187.63;5114891;28;19931;-79
2022/05/04 03:47:13;;;;;;;;;;;;;;;12.81;100.00;99191.00;5115983;28;19928;-78
2022/05/04 03:49:40;;;;;;;;;;;;;;;12.97;100.00;99182.59;5097037;28;19932;-78
2022/05/04 03:52:08;;;;;;;;;;;;;;;13.01;100.00;99191.75;5116161;28;19923;-79
2022/05/04 03:54:36;;;;;;;;;;;;;;;13.03;100.00;99183.69;5114689;28;19923;-78
2022/05/04 03:57:04;;;;;;;;;;;;;;;13.17;100.00;99178.53;5115849;27;19924;-78
2022/05/04 03:59:31;;;;;;;;;;;;;;;13.10;100.00;99184.28;5114490;28;20294;-78
2022/05/04 04:01:58;;;;;;;;;;;;;;;13.12;100.00;99175.44;5115371;28;19923;-78
2022/05/04 04:04:25;;;;;;;;;;;;;;;13.29;100.00;99182.66;5115591;27;19923;-78
2022/05/04 04:06:52;;;;;;;;;;;;;;;13.24;100.00;99172.75;5115653;28;19931;-78
2022/05/04 04:09:19;;;;;;;;;;;;;;;13.21;100.00;99170.03;5115317;28;19932;-78
2022/05/04 04:11:48;;;;;;;;;;;;;;;13.19;100.00;99166.88;5114138;28;19924;-78
2022/05/04 04:14:15;;;;;;;;;;;;;;;13.10;100.00;99166.69;5114179;28;19923;-78
2022/05/04 04:16:43;;;;;;;;;;;;;;;12.89;100.00;99167.94;5115308;28;19923;-78
2022/05/04 04:19:10;;;;;;;;;;;;;;;13.17;100.00;99169.31;5080452;28;19924;-78
2022/05/04 04:22:01;;;;;;;;;;;;;;;13.18;100.00;99163.28;5115204;28;19959;-78
2022/05/04 04:24:28;;;;;;;;;;;;;;;13.19;100.00;99158.47;5115379;28;19924;-78
2022/05/04 04:26:55;;;;;;;;;;;;;;;13.33;100.00;99158.09;5097099;28;19924;-78
2022/05/04 04:29:23;;;;;;;;;;;;;;;13.18;100.00;99162.47;5115026;28;19924;-78
2022/05/04 04:31:49;;;;;;;;;;;;;;;13.09;100.00;99149.06;5113765;28;20379;-79
2022/05/04 04:34:16;;;;;;;;;;;;;;;13.16;100.00;99154.50;5112941;28;20433;-78
2022/05/04 04:36:44;;;;;;;;;;;;;;;13.10;100.00;99161.84;5113981;28;19930;-78
2022/05/04 04:39:11;;;;;;;;;;;;;;;13.14;100.00;99156.16;5113802;28;19931;-79
2022/05/04 04:41:38;;;;;;;;;;;;;;;13.17;100.00;99155.28;5114982;28;19969;-78
2022/05/04 04:44:05;;;;;;;;;;;;;;;13.29;100.00;99151.78;5114976;28;19928;-78
2022/05/04 04:46:33;;;;;;;;;;;;;;;13.33;100.00;99158.09;5114721;28;19931;-78
2022/05/04 04:49:00;;;;;;;;;;;;;;;13.16;100.00;99154.50;5113604;28;19930;-78
2022/05/04 04:51:27;;;;;;;;;;;;;;;13.14;100.00;99145.75;5114940;28;19931;-78
2022/05/04 04:53:54;;;;;;;;;;;;;;;13.26;100.00;99147.03;5114738;28;19923;-78
2022/05/04 04:56:21;;;;;;;;;;;;;;;13.22;100.00;99146.34;5114767;28;20252;-78
2022/05/04 04:58:48;;;;;;;;;;;;;;;13.40;100.00;99152.31;5114739;28;19924;-78
2022/05/04 05:01:15;;;;;;;;;;;;;;;12.95;100.00;99151.41;5113022;28;19934;-78
2022/05/04 05:03:42;;;;;;;;;;;;;;;13.04;100.00;99152.38;5113409;28;19924;-79
2022/05/04 05:06:11;;;;;;;;;;;;;;;13.18;100.00;99156.84;5114651;28;20010;-79
2022/05/04 05:08:41;;;;;;;;;;;;;;;13.13;100.00;99154.59;5096127;28;20022;-79
2022/05/04 05:11:09;;;;;;;;;;;;;;;12.90;100.00;99154.72;5114561;28;19923;-79
2022/05/04 05:16:06;;;;;;;;;;;;;;;12.77;100.00;99160.22;5114447;28;19923;-79
2022/05/04 05:16:23;;;;;;;;;;;;;;;12.70;100.00;99166.81;5113057;28;19931;-79
2022/05/04 05:18:50;;;;;;;;;;;;;;;13.10;100.00;99156.25;5113185;28;19969;-79
2022/05/04 05:21:17;;;;;;;;;;;;;;;13.29;100.00;99154.59;5113264;28;19945;-79
2022/05/04 05:23:44;;;;;;;;;;;;;;;13.04;100.00;99158.00;5113114;28;19927;-79
2022/05/04 05:26:12;;;;;;;;;;;;;;;13.22;100.00;99160.38;5096173;28;19930;-79
2022/05/04 05:28:39;;;;;;;;;;;;;;;13.44;100.00;99164.22;5096469;28;19985;-79
2022/05/04 05:31:06;;;;;;;;;;;;;;;13.39;100.00;99151.50;5113884;28;19924;-79
2022/05/04 05:33:33;;;;;;;;;;;;;;;12.84;100.00;99165.69;5114176;28;19924;-79
2022/05/04 05:36:00;;;;;;;;;;;;;;;13.06;100.00;99154.75;5113045;28;19930;-78
2022/05/04 05:38:28;;;;;;;;;;;;;;;13.27;100.00;99165.47;5113294;28;19923;-78
2022/05/04 05:40:55;;;;;;;;;;;;;;;13.23;100.00;99157.16;5113086;28;19934;-79
2022/05/04 05:43:22;;;;;;;;;;;;;;;13.05;100.00;99158.81;5114356;28;19924;-83
2022/05/04 05:45:49;;;;;;;;;;;;;;;13.08;100.00;99158.72;5114336;28;19984;-78
2022/05/04 05:48:19;;;;;;;;;;;;;;;13.22;100.00;99157.59;5117237;28;19949;-79
2022/05/04 05:50:47;;;;;;;;;;;;;;;13.45;100.00;99158.16;5117245;28;20376;-76
2022/05/04 05:53:15;;;;;;;;;;;;;;;13.63;100.00;99160.53;5118451;28;19928;-80
2022/05/04 05:55:42;;;;;;;;;;;;;;;13.78;100.00;99161.72;5118535;28;20069;-85
2022/05/04 05:58:10;;;;;;;;;;;;;;;13.58;100.00;99155.44;5083242;28;20254;-81
2022/05/04 06:00:37;;;;;;;;;;;;;;;13.42;100.00;99155.47;5118548;28;20274;-81
2022/05/04 06:03:04;;;;;;;;;;;;;;;13.52;100.00;99145.97;5100571;28;19924;-82
2022/05/04 06:05:31;;;;;;;;;;;;;;;13.36;100.00;99151.63;5098846;28;19930;-82
2022/05/04 06:07:58;;;;;;;;;;;;;;;13.80;100.00;99156.41;5117233;28;19959;-82
2022/05/04 06:10:28;;;;;;;;;;;;;;;13.93;100.00;99162.91;5117131;28;19923;-81
2022/05/04 06:12:55;;;;;;;;;;;;;;;13.79;100.00;99163.28;5117173;27;20060;-83
2022/05/04 06:15:23;;;;;;;;;;;;;;;13.44;100.00;99164.22;5114486;28;19981;-81
2022/05/04 06:17:50;;;;;;;;;;;;;;;13.63;100.00;99166.13;5097560;28;19934;-81
2022/05/04 06:20:17;;;;;;;;;;;;;;;13.60;100.00;99162.19;5113763;28;19923;-81
2022/05/04 06:22:44;;;;;;;;;;;;;;;13.82;100.00;99165.22;5115759;28;19931;-80
2022/05/04 06:25:11;;;;;;;;;;;;;;;13.89;100.00;99165.00;5126316;27;19923;-80
2022/05/04 06:27:38;;;;;;;;;;;;;;;14.04;100.00;99163.41;5135312;27;20362;-80
2022/05/04 06:35:38;;;;;;;;;;;;;;;13.62;100.00;99161.72;5135362;27;20393;-82
2022/05/04 06:38:09;;;;;;;;;;;;;;;13.86;100.00;99158.25;5136196;27;20419;-81
2022/05/04 06:40:37;;;;;;;;;;;;;;;14.03;100.00;99148.56;5145596;27;19928;-81
2022/05/04 06:43:04;;;;;;;;;;;;;;;14.00;100.00;99157.88;5128702;27;19987;-82
2022/05/04 06:45:31;;;;;;;;;;;;;;;13.84;100.00;99159.94;5150502;27;20018;-90
2022/05/04 06:47:59;;;;;;;;;;;;;;;13.97;100.00;99170.00;5094589;27;19923;-83
2022/05/04 06:50:26;;;;;;;;;;;;;;;14.07;100.00;99156.88;5119800;27;19923;-82
2022/05/04 06:52:53;;;;;;;;;;;;;;;14.04;100.00;99163.41;5118772;27;20020;-82
2022/05/04 06:55:20;;;;;;;;;;;;;;;14.12;100.00;99159.13;5136790;27;19931;-82
2022/05/04 06:57:47;;;;;;;;;;;;;;;14.28;100.00;99162.69;5134599;27;20008;-82
2022/05/04 07:00:14;;;;;;;;;;;;;;;14.48;100.00;99148.44;5118488;27;20336;-82
2022/05/04 07:02:41;;;;;;;;;;;;;;;14.32;100.00;99148.53;5136829;27;19980;-82
2022/05/04 07:05:08;;;;;;;;;;;;;;;14.37;100.00;99148.00;5118480;27;19923;-82
2022/05/04 07:07:35;;;;;;;;;;;;;;;14.30;100.00;99156.63;5118619;27;19935;-82
2022/05/04 07:10:03;;;;;;;;;;;;;;;14.31;100.00;99150.56;5135383;27;20370;-82
2022/05/04 07:12:30;;;;;;;;;;;;;;;14.27;100.00;99151.91;5135078;27;19923;-82
2022/05/04 07:14:57;;;;;;;;;;;;;;;14.45;100.00;99143.72;5135298;27;19980;-82
2022/05/04 07:17:25;;;;;;;;;;;;;;;14.01;100.00;99144.63;5118176;27;19931;-82
2022/05/04 07:19:53;;;;;;;;;;;;;;;13.70;100.00;99140.66;5118230;27;20030;-82
2022/05/04 07:22:24;;;;;;;;;;;;;;;13.59;100.00;99142.97;5136403;27;20086;-82
2022/05/04 07:24:51;;;;;;;;;;;;;;;13.37;100.00;99153.19;5135031;27;20014;-81
2022/05/04 07:27:18;;;;;;;;;;;;;;;13.59;100.00;99154.19;5117666;27;19923;-82
2022/05/04 07:29:46;;;;;;;;;;;;;;;13.42;100.00;99155.47;5117828;27;19972;-81
2022/05/04 07:32:14;;;;;;;;;;;;;;;13.13;100.00;99154.59;5135010;27;19996;-81
2022/05/04 07:34:41;;;;;;;;;;;;;;;13.69;100.00;99167.94;5134956;27;19966;-82
2022/05/04 07:37:09;;;;;;;;;;;;;;;13.62;100.00;99158.94;5136083;27;20391;-82
2022/05/04 07:42:24;;;;;;;;;;;;;;;13.74;100.00;99158.19;5134806;27;20305;-82
2022/05/04 07:44:51;;;;;;;;;;;;;;;14.26;100.00;99147.53;5100851;27;20272;-81
2022/05/04 07:47:21;;;;;;;;;;;;;;;13.88;100.00;99143.78;5117505;27;19923;-82
2022/05/04 07:49:48;;;;;;;;;;;;;;;13.70;100.00;99149.09;5083972;27;20302;-82
2022/05/04 07:52:15;;;;;;;;;;;;;;;13.95;100.00;99149.97;5134467;27;19927;-81
2022/05/04 07:54:42;;;;;;;;;;;;;;;14.05;100.00;99143.28;5117290;27;19923;-81
2022/05/04 07:57:10;;;;;;;;;;;;;;;13.75;100.00;99154.94;5134321;27;19924;-82
2022/05/04 07:59:37;;;;;;;;;;;;;;;13.36;100.00;99151.63;5135606;27;19946;-82
2022/05/04 08:04:50;;;;;;;;;;;;;;;13.73;100.00;99153.81;5134220;27;19923;-82
2022/05/04 08:07:18;;;;;;;;;;;;;;;13.33;100.00;99153.25;5134619;27;19923;-82
2022/05/04 08:09:45;;;;;;;;;;;;;;;13.37;100.00;99150.38;5132732;27;19927;-82
2022/05/04 08:12:13;;;;;;;;;;;;;;;13.42;100.00;99149.84;5117208;27;19924;-82
2022/05/04 08:14:40;;;;;;;;;;;;;;;13.43;100.00;99157.03;5134053;27;20022;-82
2022/05/04 08:17:07;;;;;;;;;;;;;;;13.60;100.00;99150.19;5117072;27;20298;-81
2022/05/04 08:19:34;;;;;;;;;;;;;;;13.44;100.00;99138.97;5134046;27;19930;-82
2022/05/04 08:22:02;;;;;;;;;;;;;;;13.30;100.00;99144.97;5116878;27;19930;-84
2022/05/04 08:24:29;;;;;;;;;;;;;;;13.75;100.00;99142.94;5133679;27;19927;-81
2022/05/04 08:26:59;;;;;;;;;;;;;;;13.44;100.00;99138.97;5135290;27;19955;-81
2022/05/04 08:29:29;;;;;;;;;;;;;;;13.34;100.00;99145.66;5134927;27;20471;-81
2022/05/04 08:31:58;;;;;;;;;;;;;;;13.79;100.00;99143.63;5135105;27;20026;-81
2022/05/04 08:34:25;;;;;;;;;;;;;;;13.46;100.00;99142.13;5133736;27;20285;-82
2022/05/04 08:36:52;;;;;;;;;;;;;;;13.56;100.00;99141.03;5133628;27;19946;-81
2022/05/04 08:39:19;;;;;;;;;;;;;;;13.56;100.00;99138.22;5134565;27;19930;-81
2022/05/04 08:41:46;;;;;;;;;;;;;;;13.80;100.00;99131.16;5133553;27;19930;-82
2022/05/04 08:44:14;;;;;;;;;;;;;;;13.88;100.00;99135.34;5134863;27;19923;-81
2022/05/04 08:46:42;;;;;;;;;;;;;;;13.95;100.00;99137.97;5133553;27;19931;-81
2022/05/04 08:49:12;;;;;;;;;;;;;;;14.08;100.00;99135.97;5133423;27;19930;-81
2022/05/04 08:51:40;;;;;;;;;;;;;;;14.09;100.00;99137.53;5133563;27;19931;-81
2022/05/04 08:54:08;;;;;;;;;;;;;;;13.82;100.00;99140.72;5116008;27;19923;-81
2022/05/04 08:56:36;;;;;;;;;;;;;;;14.04;100.00;99138.13;5133374;27;19923;-81
2022/05/04 08:59:04;;;;;;;;;;;;;;;14.01;100.00;99136.19;5134500;27;19989;-81
2022/05/04 09:01:31;;;;;;;;;;;;;;;13.99;100.00;99144.28;5134519;27;20382;-81
2022/05/04 09:03:59;;;;;;;;;;;;;;;14.36;100.00;99130.34;5133195;27;19927;-81
2022/05/04 09:06:27;;;;;;;;;;;;;;;14.30;100.00;99136.94;5116246;27;20310;-82
2022/05/04 09:08:54;;;;;;;;;;;;;;;14.13;100.00;99136.22;5133104;27;19924;-82
2022/05/04 09:11:22;;;;;;;;;;;;;;;13.89;100.00;99139.72;5116012;27;19924;-82
2022/05/04 09:13:49;;;;;;;;;;;;;;;14.51;100.00;99141.94;5116016;27;20064;-81
2022/05/04 09:16:27;;;;;;;;;;;;;;;14.42;100.00;99141.81;5134212;27;19971;-81
2022/05/04 09:18:54;;;;;;;;;;;;;;;14.81;100.00;99144.22;5099112;27;19930;-81
2022/05/04 09:21:22;;;;;;;;;;;;;;;14.96;100.00;99136.09;5133817;27;19923;-81
2022/05/04 09:23:50;;;;;;;;;;;;;;;15.27;100.00;99131.44;5132885;27;19924;-81
2022/05/04 09:26:18;;;;;;;;;;;;;;;15.44;100.00;99130.88;5132902;27;20018;-81
2022/05/04 09:28:50;;;;;;;;;;;;;;;15.64;100.00;99137.03;5133748;27;19935;-82
2022/05/04 09:31:23;;;;;;;;;;;;;;;15.88;100.00;99134.56;5098889;28;20313;-81
2022/05/04 09:33:58;;;;;;;;;;;;;;;16.00;100.00;99130.88;5116054;28;19929;-82
2022/05/04 09:44:53;;;;;;;;;;;;;;;15.71;100.00;99133.94;5132631;28;19923;-81
2022/05/04 09:45:12;;;;;;;;;;;;;;;15.46;100.00;99131.22;5132821;28;20401;-82
2022/05/04 09:47:41;;;;;;;;;;;;;;;15.72;100.00;99135.50;5132609;28;20335;-81
2022/05/04 09:50:09;;;;;;;;;;;;;;;16.01;100.00;99136.06;5132504;28;20369;-82
2022/05/04 09:52:41;;;;;;;;;;;;;;;15.67;100.00;99129.69;5132481;28;19928;-82
2022/05/04 09:55:24;;;;;;;;;;;;;;;15.27;100.00;99132.22;5132691;28;20340;-82
2022/05/04 09:57:53;;;;;;;;;;;;;;;15.47;100.00;99135.59;5132715;28;19924;-82
2022/05/04 10:00:21;;;;;;;;;;;;;;;15.77;100.00;99140.56;5115369;28;19930;-82
2022/05/04 10:02:48;;;;;;;;;;;;;;;15.98;100.00;99142.63;5132608;28;20302;-81
2022/05/04 10:05:16;;;;;;;;;;;;;;;15.84;100.00;99139.53;5133573;27;19924;-81
2022/05/04 10:07:44;;;;;;;;;;;;;;;16.09;100.00;99131.75;5115461;28;20018;-82
2022/05/04 10:10:14;;;;;;;;;;;;;;;16.05;100.00;99131.06;5132560;28;20371;-82
2022/05/04 10:12:42;;;;;;;;;;;;;;;16.03;100.00;99139.22;5098606;28;19923;-82
2022/05/04 10:15:10;;;;;;;;;;;;;;;16.05;100.00;99131.06;5081603;28;20263;-82
2022/05/04 10:17:40;;;;;;;;;;;;;;;15.90;100.00;99127.19;5133793;27;20275;-82
2022/05/04 10:20:11;;;;;;;;;;;;;;;14.81;100.00;99124.53;5115051;28;20011;-81
2022/05/04 10:22:40;;;;;;;;;;;;;;;15.18;100.00;99131.34;5132516;28;20374;-81
2022/05/04 10:25:08;;;;;;;;;;;;;;;14.92;100.00;99138.25;5132488;28;19923;-82
2022/05/04 10:27:42;;;;;;;;;;;;;;;14.99;100.00;99130.38;5115476;28;20309;-82
2022/05/04 10:33:03;;;;;;;;;;;;;;;15.54;100.00;99129.72;5135315;27;19929;-81
2022/05/04 10:35:43;;;;;;;;;;;;;;;15.91;100.00;99130.81;5136947;27;20471;-81
2022/05/04 10:38:10;;;;;;;;;;;;;;;15.79;100.00;99128.84;5137605;27;19930;-82
2022/05/04 10:40:43;;;;;;;;;;;;;;;15.45;100.00;99120.41;5135875;27;19924;-82
2022/05/04 10:43:17;;;;;;;;;;;;;;;15.80;100.00;99125.56;5136088;27;19923;-81
2022/05/04 10:45:46;;;;;;;;;;;;;;;15.47;100.00;99112.28;5136116;27;19924;-82
2022/05/04 10:48:19;;;;;;;;;;;;;;;15.15;100.00;99116.16;5101642;27;19931;-82
2022/05/04 10:50:55;;;;;;;;;;;;;;;15.58;100.00;99118.34;5118342;27;20086;-82
2022/05/04 10:53:26;;;;;;;;;;;;;;;15.12;100.00;99114.25;5118780;27;19923;-82
2022/05/04 10:56:13;;;;;;;;;;;;;;;15.60;100.00;99130.72;5101833;27;20409;-81
2022/05/04 10:59:01;;;;;;;;;;;;;;;15.47;100.00;99124.34;5118544;27;19924;-80
2022/05/04 11:01:34;;;;;;;;;;;;;;;15.15;100.00;99124.59;5101810;27;19972;-80
2022/05/04 11:04:10;;;;;;;;;;;;;;;14.90;100.00;99135.09;5130797;27;19946;-80
2022/05/04 11:06:37;;;;;;;;;;;;;;;15.01;100.00;99125.06;5119764;27;19928;-81
2022/05/04 11:09:06;;;;;;;;;;;;;;;15.37;100.00;99131.09;5114085;28;19927;-80
2022/05/04 11:11:34;;;;;;;;;;;;;;;15.36;100.00;99137.16;5096244;28;19924;-80
2022/05/04 11:14:01;;;;;;;;;;;;;;;14.68;100.00;99129.34;5113213;28;19983;-79
2022/05/04 11:16:28;;;;;;;;;;;;;;;14.39;100.00;99137.88;5114128;28;19935;-79
2022/05/04 11:18:57;;;;;;;;;;;;;;;14.33;100.00;99136.06;5112759;28;19930;-79
2022/05/04 11:21:25;;;;;;;;;;;;;;;14.89;100.00;99128.69;5096353;28;20291;-80
2022/05/04 11:23:53;;;;;;;;;;;;;;;14.96;100.00;99128.47;5112644;28;20312;-79
2022/05/04 11:26:41;;;;;;;;;;;;;;;14.99;100.00;99124.75;5095456;28;20420;-80
2022/05/04 11:29:11;;;;;;;;;;;;;;;14.99;100.00;99113.50;5112517;28;19959;-79
2022/05/04 11:31:57;;;;;;;;;;;;;;;14.73;100.00;99120.38;5100830;28;20255;-80
2022/05/04 11:34:31;;;;;;;;;;;;;;;14.88;100.00;99121.47;5112613;28;20022;-80
2022/05/04 11:37:06;;;;;;;;;;;;;;;15.03;100.00;99127.44;5112310;28;19930;-80
2022/05/04 11:39:33;;;;;;;;;;;;;;;14.99;100.00;99123.94;5126999;27;20397;-80
2022/05/04 11:42:01;;;;;;;;;;;;;;;14.70;100.00;99134.53;5114202;28;19946;-78
2022/05/04 11:44:29;;;;;;;;;;;;;;;14.92;100.00;99136.22;5095462;28;19935;-80
2022/05/04 11:46:57;;;;;;;;;;;;;;;15.27;100.00;99137.06;5113112;28;20009;-80
2022/05/04 11:49:25;;;;;;;;;;;;;;;15.13;100.00;99137.56;5134240;27;20302;-80
2022/05/04 11:51:54;;;;;;;;;;;;;;;14.91;100.00;99131.84;5132822;27;19923;-80
2022/05/04 11:54:21;;;;;;;;;;;;;;;14.98;100.00;99137.22;5115348;27;19930;-80
2022/05/04 11:56:48;;;;;;;;;;;;;;;15.43;100.00;99139.78;5132935;27;20289;-80
2022/05/04 11:59:16;;;;;;;;;;;;;;;15.33;100.00;99140.88;5132565;27;20026;-81
2022/05/04 12:01:43;;;;;;;;;;;;;;;15.76;100.00;99136.19;5132977;27;19927;-77
2022/05/04 12:04:12;;;;;;;;;;;;;;;15.82;100.00;99120.28;5132434;27;19962;-79
2022/05/04 12:06:42;;;;;;;;;;;;;;;16.00;100.00;99134.50;5112770;28;19924;-79
2022/05/04 12:09:13;;;;;;;;;;;;;;;15.82;100.00;99130.75;5127623;27;19930;-79
2022/05/04 12:11:40;;;;;;;;;;;;;;;16.31;100.00;99130.94;5111569;28;19924;-79
2022/05/04 12:14:09;;;;;;;;;;;;;;;16.21;100.00;99128.06;5113417;28;20410;-79
2022/05/04 12:16:41;;;;;;;;;;;;;;;16.11;100.00;99129.25;5111713;28;20458;-79
2022/05/04 12:19:09;;;;;;;;;;;;;;;15.84;100.00;99120.59;5112647;28;19924;-79
2022/05/04 12:21:39;;;;;;;;;;;;;;;16.02;100.00;99123.53;5112434;28;20378;-78
2022/05/04 12:24:07;;;;;;;;;;;;;;;15.80;100.00;99136.03;5112422;28;19930;-78
2022/05/04 12:26:34;;;;;;;;;;;;;;;15.69;100.00;99139.25;5111710;28;20018;-80
2022/05/04 12:34:33;;;;;;;;;;;;;;;15.22;100.00;99129.97;5111307;28;19924;-79
2022/05/04 12:37:01;;;;;;;;;;;;;;;15.40;100.00;99133.03;5111382;28;20014;-80
2022/05/04 12:39:29;;;;;;;;;;;;;;;15.30;100.00;99122.88;5112055;28;19923;-80
2022/05/04 12:41:59;;;;;;;;;;;;;;;15.36;100.00;99132.31;5111896;28;19931;-80
2022/05/04 12:44:30;;;;;;;;;;;;;;;15.86;100.00;99122.94;5111211;28;19931;-80
2022/05/04 12:46:58;;;;;;;;;;;;;;;15.91;100.00;99130.81;5110168;28;19939;-80
2022/05/04 12:49:28;;;;;;;;;;;;;;;16.00;100.00;99122.44;5111224;28;19924;-80
2022/05/04 12:51:56;;;;;;;;;;;;;;;15.70;100.00;99123.94;5110540;28;19931;-81
2022/05/04 12:54:24;;;;;;;;;;;;;;;15.52;100.00;99126.59;5110825;28;19924;-80
2022/05/04 12:56:51;;;;;;;;;;;;;;;15.37;100.00;99122.66;5114355;27;19930;-80
2022/05/04 12:59:19;;;;;;;;;;;;;;;15.24;100.00;99121.88;5130695;27;20044;-79
2022/05/04 13:01:46;;;;;;;;;;;;;;;15.23;100.00;99125.94;5133420;27;20282;-81
2022/05/04 13:04:15;;;;;;;;;;;;;;;15.37;100.00;99133.13;5137077;27;19949;-79
2022/05/04 13:06:43;;;;;;;;;;;;;;;15.36;100.00;99117.44;5135572;27;20014;-79
2022/05/04 13:09:11;;;;;;;;;;;;;;;15.44;100.00;99130.88;5137731;27;19923;-80
2022/05/04 13:11:39;;;;;;;;;;;;;;;15.84;100.00;99120.59;5132954;27;19923;-80